Time;durP1;ratioP1;P1;durP2;ratioP2;P2;SDS_P1;SDS_P2;PMS_P1;PMS_P2;Temp;Humidity;BMP_temperature;BMP_pressure;BME280_temperature;BME280_humidity;BME280_pressure;Samples;Min_cycle;Max_cycle;Signal;HPM_P1;HPM_P2
2022/12/29 00:02:22;;;;;;;27.77;19.38;;;;;;;7.35;88.71;100634.19;5054482;28;20446;-55
2022/12/29 00:04:50;;;;;;;23.43;15.93;;;;;;;7.54;88.12;100673.50;5054864;28;20310;-55
2022/12/29 00:07:17;;;;;;;22.00;15.93;;;;;;;7.51;87.70;100678.47;5054958;28;20188;-55
2022/12/29 00:09:44;;;;;;;19.20;14.60;;;;;;;7.50;87.85;100670.69;5055081;28;20188;-55
2022/12/29 00:12:11;;;;;;;21.83;14.03;;;;;;;7.52;87.39;100669.13;5057000;28;20193;-55
2022/12/29 00:17:23;;;;;;;20.60;13.77;;;;;;;7.44;87.58;100684.09;5075119;28;20191;-55
2022/12/29 00:36:20;;;;;;;18.03;12.80;;;;;;;7.64;86.89;100701.25;5069374;28;20206;-56
2022/12/29 00:44:22;;;;;;;19.53;14.17;;;;;;;7.72;87.06;100709.28;5054689;28;20571;-55
2022/12/29 00:46:50;;;;;;;17.03;13.50;;;;;;;7.57;86.66;100693.22;5054206;28;20199;-55
2022/12/29 00:49:30;;;;;;;23.97;16.83;;;;;;;7.71;87.34;100713.53;5057245;28;20496;-55
2022/12/29 00:51:59;;;;;;;23.40;14.63;;;;;;;7.76;86.93;100720.53;5064538;28;20194;-55
2022/12/29 00:54:26;;;;;;;22.77;15.50;;;;;;;7.79;86.37;100721.56;5072280;28;20612;-55
2022/12/29 00:56:54;;;;;;;21.90;14.87;;;;;;;7.79;86.24;100715.56;5073549;28;20179;-55
2022/12/29 00:59:21;;;;;;;21.10;16.13;;;;;;;7.77;86.14;100722.28;5073437;28;20649;-56
2022/12/29 01:01:50;;;;;;;21.93;15.30;;;;;;;7.86;86.10;100720.16;5073438;28;20188;-55
2022/12/29 01:04:16;;;;;;;20.73;16.23;;;;;;;7.90;85.62;100724.63;5073495;28;20221;-55
2022/12/29 01:06:43;;;;;;;19.97;15.13;;;;;;;7.86;85.69;100720.16;5073482;28;20705;-55
2022/12/29 01:11:55;;;;;;;21.63;14.33;;;;;;;7.86;85.58;100713.34;5071736;28;20321;-55
2022/12/29 01:14:22;;;;;;;22.83;17.03;;;;;;;7.93;85.86;100704.28;5072150;28;20507;-55
2022/12/29 01:16:51;;;;;;;18.40;15.07;;;;;;;8.01;85.36;100708.06;5073881;28;20192;-55
2022/12/29 01:19:18;;;;;;;22.50;15.17;;;;;;;8.01;84.81;100713.19;5073322;28;20356;-55
2022/12/29 01:21:45;;;;;;;25.30;16.23;;;;;;;8.01;84.86;100714.06;5073190;28;20193;-55
2022/12/29 01:24:12;;;;;;;18.03;14.60;;;;;;;7.94;85.08;100713.72;5073638;28;20247;-55
2022/12/29 01:26:39;;;;;;;24.93;16.17;;;;;;;7.94;84.85;100701.78;5073469;28;20230;-55
2022/12/29 01:29:06;;;;;;;20.77;14.80;;;;;;;7.89;85.06;100702.38;5073283;28;20192;-55
2022/12/29 01:31:33;;;;;;;24.30;18.63;;;;;;;7.96;85.05;100707.00;5072637;28;20429;-55
2022/12/29 01:34:01;;;;;;;25.33;16.87;;;;;;;7.99;84.34;100707.13;5073466;28;20187;-55
2022/12/29 01:36:28;;;;;;;20.77;15.47;;;;;;;7.85;84.06;100665.56;5073001;28;20195;-55
2022/12/29 01:38:55;;;;;;;19.93;16.03;;;;;;;8.04;84.21;100701.41;5072791;28;20203;-55
2022/12/29 01:41:22;;;;;;;24.77;16.43;;;;;;;8.03;84.26;100694.53;5073579;28;20240;-55
2022/12/29 01:43:51;;;;;;;23.47;16.27;;;;;;;7.99;84.10;100697.78;5073107;28;20544;-54
2022/12/29 01:46:26;;;;;;;26.70;15.93;;;;;;;7.99;83.93;100694.34;5073152;28;20231;-55
2022/12/29 01:48:56;;;;;;;19.20;15.20;;;;;;;8.03;84.20;100685.97;5072996;28;20604;-55
2022/12/29 01:51:27;;;;;;;21.70;15.00;;;;;;;7.95;84.08;100664.28;5073603;28;20257;-55
2022/12/29 01:53:57;;;;;;;25.23;15.90;;;;;;;8.08;84.05;100677.69;5073178;28;20192;-55
2022/12/29 01:56:24;;;;;;;22.27;16.30;;;;;;;8.11;84.04;100670.16;5072844;28;20264;-55
2022/12/29 01:58:56;;;;;;;22.40;15.90;;;;;;;8.08;83.88;100661.47;5070081;28;20328;-55
2022/12/29 02:01:23;;;;;;;20.30;15.57;;;;;;;8.12;83.64;100671.03;5061095;28;20598;-55
2022/12/29 02:03:51;;;;;;;24.90;16.03;;;;;;;8.15;83.57;100671.19;5061106;28;20555;-55
2022/12/29 02:06:22;;;;;;;22.83;14.93;;;;;;;8.17;83.49;100660.19;5067575;28;20711;-55
2022/12/29 02:08:53;;;;;;;23.40;16.20;;;;;;;8.12;83.68;100656.56;5073027;28;20260;-55
2022/12/29 02:11:20;;;;;;;20.07;16.07;;;;;;;8.03;83.50;100625.44;5055756;28;20582;-55
2022/12/29 02:13:47;;;;;;;25.10;16.13;;;;;;;8.16;83.72;100645.63;5052575;28;20679;-55
2022/12/29 02:16:27;;;;;;;24.20;16.77;;;;;;;8.16;83.68;100647.31;5052437;28;20532;-55
2022/12/29 02:19:04;;;;;;;23.02;17.38;;;;;;;8.14;83.66;100638.69;5052431;28;20447;-55
2022/12/29 02:21:45;;;;;;;21.07;15.93;;;;;;;8.21;83.56;100640.75;5065884;28;20210;-55
2022/12/29 02:24:47;;;;;;;23.83;15.97;;;;;;;8.19;82.98;100637.22;5072609;28;20194;-55
2022/12/29 02:27:39;;;;;;;21.87;16.27;;;;;;;8.22;82.88;100628.00;5072525;28;20215;-55
2022/12/29 02:30:13;;;;;;;21.27;16.23;;;;;;;8.23;82.85;100634.88;5072428;28;20195;-55
2022/12/29 02:32:50;;;;;;;20.70;16.87;;;;;;;8.25;82.57;100628.13;5072365;28;20278;-55
2022/12/29 02:35:30;;;;;;;21.50;15.53;;;;;;;8.26;82.43;100622.22;5072260;28;20198;-55
2022/12/29 02:38:04;;;;;;;24.60;18.03;;;;;;;8.25;82.43;100628.13;5072791;28;20188;-55
2022/12/29 02:40:39;;;;;;;25.63;17.90;;;;;;;8.23;82.29;100621.19;5072303;28;20709;-55
2022/12/29 02:43:15;;;;;;;27.53;18.80;;;;;;;8.19;82.52;100624.41;5072375;28;20187;-55
2022/12/29 02:45:48;;;;;;;26.20;19.00;;;;;;;8.20;82.57;100618.50;5072466;28;20229;-55
2022/12/29 02:48:21;;;;;;;24.23;19.20;;;;;;;8.14;83.04;100620.78;5071829;28;20191;-55
2022/12/29 02:50:54;;;;;;;24.27;19.70;;;;;;;8.16;82.93;100614.91;5072473;28;20191;-54
2022/12/29 02:54:40;;;;;;;23.23;18.73;;;;;;;7.93;82.67;100577.22;5072553;28;20202;-55
2022/12/29 02:56:08;;;;;;;26.00;19.27;;;;;;;8.12;82.95;100619.84;5071838;28;20258;-55
2022/12/29 02:58:34;;;;;;;25.10;19.47;;;;;;;8.10;82.91;100616.34;5072170;28;20188;-55
2022/12/29 03:01:16;;;;;;;26.20;18.60;;;;;;;8.03;83.30;100610.06;5072415;28;20197;-55
2022/12/29 03:04:00;;;;;;;26.60;19.40;;;;;;;8.01;83.25;100613.38;5072292;28;20187;-55
2022/12/29 03:06:36;;;;;;;26.47;19.10;;;;;;;7.98;83.55;100615.81;5071861;28;20731;-55
2022/12/29 03:09:15;;;;;;;27.70;19.53;;;;;;;7.94;83.44;100609.66;5071883;28;20313;-55
2022/12/29 03:17:27;;;;;;;30.30;20.70;;;;;;;7.77;83.82;100607.19;5072243;28;20681;-55
2022/12/29 03:20:02;;;;;;;28.53;20.73;;;;;;;7.71;84.36;100608.66;5072204;28;20188;-55
2022/12/29 03:22:35;;;;;;;25.63;19.77;;;;;;;7.68;84.68;100608.50;5071929;28;20199;-55
2022/12/29 03:25:06;;;;;;;29.77;23.17;;;;;;;7.65;85.07;100610.94;5071868;28;20763;-55
2022/12/29 03:27:37;;;;;;;30.23;22.63;;;;;;;7.65;84.89;100605.81;5071578;28;20266;-55
2022/12/29 03:30:06;;;;;;;30.92;25.17;;;;;;;7.61;85.58;100596.22;5070626;28;20438;-55
2022/12/29 03:32:37;;;;;;;33.47;20.90;;;;;;;7.72;85.44;100600.16;5072050;28;20237;-55
2022/12/29 03:35:07;;;;;;;27.03;20.07;;;;;;;7.62;85.39;100589.44;5071918;28;20570;-55
2022/12/29 03:37:38;;;;;;;32.60;21.67;;;;;;;7.64;85.44;100600.63;5072353;28;20191;-55
2022/12/29 03:40:07;;;;;;;32.17;23.83;;;;;;;7.47;85.64;100599.84;5072346;28;20202;-55
2022/12/29 03:42:37;;;;;;;30.53;20.83;;;;;;;7.21;87.21;100596.88;5071822;28;20195;-55
2022/12/29 03:45:06;;;;;;;31.17;21.63;;;;;;;7.16;88.22;100601.78;5071886;28;20577;-55
2022/12/29 03:47:32;;;;;;;45.50;26.90;;;;;;;7.00;88.81;100599.31;5071490;28;20219;-55
2022/12/29 03:49:59;;;;;;;41.67;30.53;;;;;;;6.84;89.47;100604.50;5071594;28;20559;-55
2022/12/29 03:52:27;;;;;;;38.03;28.33;;;;;;;6.65;89.79;100605.25;5072047;28;20256;-55
2022/12/29 03:54:54;;;;;;;35.50;25.07;;;;;;;6.57;90.71;100606.53;5071323;28;20194;-55
2022/12/29 03:57:21;;;;;;;33.53;25.83;;;;;;;6.44;91.11;100594.84;5071547;28;20555;-55
2022/12/29 03:59:48;;;;;;;37.40;26.83;;;;;;;6.34;92.18;100595.22;5072699;28;20192;-55
2022/12/29 04:02:14;;;;;;;37.97;27.70;;;;;;;6.21;93.45;100604.69;5075332;28;20574;-55
2022/12/29 04:04:41;;;;;;;37.67;25.43;;;;;;;6.09;93.69;100602.41;5075131;28;20195;-55
2022/12/29 04:07:09;;;;;;;37.63;25.73;;;;;;;6.08;94.20;100603.19;5074067;28;20612;-55
2022/12/29 04:09:37;;;;;;;36.17;26.20;;;;;;;6.03;95.08;100609.75;5065981;28;20197;-54
2022/12/29 04:12:04;;;;;;;34.87;26.63;;;;;;;6.03;95.20;100617.41;5074700;28;20192;-55
2022/12/29 04:14:31;;;;;;;39.50;27.40;;;;;;;5.81;95.48;100586.44;5075407;28;20219;-55
2022/12/29 04:16:58;;;;;;;38.50;28.50;;;;;;;5.92;95.56;100611.75;5074984;28;20218;-55
2022/12/29 04:19:25;;;;;;;37.93;29.00;;;;;;;5.84;96.49;100625.72;5074545;28;20205;-55
2022/12/29 04:21:51;;;;;;;37.23;27.83;;;;;;;5.87;96.79;100625.03;5074834;28;20207;-55
2022/12/29 04:24:18;;;;;;;45.97;29.07;;;;;;;5.93;96.74;100622.81;5074855;28;20323;-54
2022/12/29 04:26:46;;;;;;;40.13;29.33;;;;;;;5.85;96.59;100604.53;5074676;28;20245;-55
2022/12/29 04:29:13;;;;;;;35.40;25.07;;;;;;;5.96;96.68;100628.06;5074759;28;20186;-54
2022/12/29 04:31:40;;;;;;;39.37;27.07;;;;;;;5.93;96.62;100628.78;5074596;28;20660;-54
2022/12/29 04:34:07;;;;;;;35.30;24.63;;;;;;;5.99;96.49;100637.56;5074386;28;20242;-54
2022/12/29 04:36:34;;;;;;;39.63;27.47;;;;;;;5.99;96.55;100635.03;5073503;28;20203;-54
2022/12/29 04:39:00;;;;;;;38.70;27.10;;;;;;;6.01;96.02;100644.50;5074598;28;20216;-54
2022/12/29 04:41:28;;;;;;;36.07;24.43;;;;;;;5.91;96.59;100625.28;5074524;28;20194;-54
2022/12/29 04:43:56;;;;;;;35.33;23.83;;;;;;;6.04;96.74;100644.66;5074456;28;20191;-54
2022/12/29 04:46:23;;;;;;;32.00;24.37;;;;;;;6.04;96.04;100649.78;5073678;28;20229;-54
2022/12/29 04:48:50;;;;;;;33.80;24.57;;;;;;;6.10;96.34;100649.22;5074045;28;20257;-54
2022/12/29 04:51:17;;;;;;;34.50;25.57;;;;;;;6.07;96.07;100649.91;5074721;28;20191;-54
2022/12/29 04:53:44;;;;;;;36.37;24.53;;;;;;;6.08;95.37;100653.34;5074389;28;20206;-54
2022/12/29 04:56:10;;;;;;;32.77;25.80;;;;;;;6.06;95.55;100649.84;5073642;28;20196;-55
2022/12/29 04:58:37;;;;;;;39.00;26.10;;;;;;;6.09;95.73;100660.22;5074077;28;20199;-54
2022/12/29 05:01:05;;;;;;;36.83;27.10;;;;;;;6.13;95.08;100660.44;5073884;28;20210;-54
2022/12/29 05:03:32;;;;;;;40.57;27.50;;;;;;;6.15;94.94;100663.09;5074718;28;20551;-54
2022/12/29 05:05:59;;;;;;;43.13;29.87;;;;;;;6.17;95.09;100658.94;5071866;28;20198;-55
2022/12/29 05:08:26;;;;;;;44.77;31.37;;;;;;;6.19;95.00;100665.88;5070316;28;20193;-55
2022/12/29 05:10:53;;;;;;;40.10;29.93;;;;;;;6.20;94.63;100659.97;5069144;28;20195;-56
2022/12/29 05:13:20;;;;;;;44.70;32.47;;;;;;;6.26;94.41;100659.41;5072999;28;20191;-54
2022/12/29 05:15:48;;;;;;;44.90;31.67;;;;;;;6.21;94.35;100665.94;5073791;28;20187;-54
2022/12/29 05:18:17;;;;;;;45.00;31.27;;;;;;;6.25;94.15;100663.63;5073473;28;20574;-54
2022/12/29 05:20:44;;;;;;;47.60;31.93;;;;;;;6.23;94.21;100660.13;5071147;28;20188;-54
2022/12/29 05:23:11;;;;;;;46.40;31.60;;;;;;;6.23;93.62;100655.03;5068383;28;20613;-54
2022/12/29 05:25:37;;;;;;;46.53;32.03;;;;;;;6.26;93.73;100655.16;5071073;28;20588;-54
2022/12/29 05:28:04;;;;;;;47.10;33.73;;;;;;;6.23;94.56;100654.16;5073443;28;20275;-54
2022/12/29 05:30:31;;;;;;;48.83;32.50;;;;;;;6.21;94.19;100654.06;5073228;28;20651;-54
2022/12/29 05:32:58;;;;;;;53.07;38.40;;;;;;;6.23;93.86;100646.50;5071219;28;20214;-54
2022/12/29 05:35:26;;;;;;;48.67;34.67;;;;;;;6.13;93.58;100637.47;5073252;28;20661;-53
2022/12/29 05:37:53;;;;;;;49.80;35.93;;;;;;;6.17;94.31;100648.72;5073115;28;20654;-54
2022/12/29 05:40:20;;;;;;;45.17;32.63;;;;;;;6.15;94.27;100656.31;5073360;28;20198;-54
2022/12/29 05:42:46;;;;;;;46.13;32.50;;;;;;;6.20;93.80;100647.22;5066173;28;20620;-55
2022/12/29 05:45:13;;;;;;;43.77;30.97;;;;;;;6.18;93.73;100643.69;5066100;28;20198;-55
2022/12/29 05:47:40;;;;;;;56.77;36.73;;;;;;;6.14;93.72;100633.25;5072790;28;20212;-54
2022/12/29 05:50:07;;;;;;;50.87;33.93;;;;;;;6.08;93.06;100638.03;5072860;28;20193;-55
2022/12/29 05:52:38;;;;;;;69.43;39.93;;;;;;;6.02;93.27;100643.69;5072763;28;20645;-54
2022/12/29 05:55:06;;;;;;;58.30;37.90;;;;;;;6.00;93.89;100640.19;5065167;28;20211;-55
2022/12/29 05:57:32;;;;;;;56.73;36.50;;;;;;;5.93;93.86;100633.03;5067750;28;20205;-55
2022/12/29 05:59:59;;;;;;;56.97;37.63;;;;;;;6.00;94.00;100635.09;5073419;28;20613;-55
2022/12/29 06:02:26;;;;;;;52.60;35.37;;;;;;;5.96;94.54;100632.31;5072849;28;20191;-54
2022/12/29 06:04:53;;;;;;;60.67;35.53;;;;;;;5.96;94.65;100648.47;5072899;28;20193;-54
2022/12/29 06:07:19;;;;;;;46.70;31.47;;;;;;;5.93;95.00;100641.53;5072167;28;20594;-54
2022/12/29 06:09:48;;;;;;;50.37;31.50;;;;;;;5.98;94.44;100646.91;5072528;28;20199;-54
2022/12/29 06:12:14;;;;;;;45.67;33.13;;;;;;;5.98;94.58;100646.91;5072103;28;20201;-55
2022/12/29 06:14:41;;;;;;;51.87;34.73;;;;;;;6.00;93.82;100642.75;5072566;28;20224;-54
2022/12/29 06:17:09;;;;;;;52.53;34.50;;;;;;;5.92;94.53;100626.16;5072833;28;20189;-55
2022/12/29 06:19:36;;;;;;;51.83;35.37;;;;;;;6.06;94.11;100640.50;5072223;28;20186;-55
2022/12/29 06:22:02;;;;;;;55.23;36.30;;;;;;;6.07;93.60;100647.34;5072122;28;20303;-54
2022/12/29 06:24:29;;;;;;;54.53;33.23;;;;;;;6.06;93.32;100648.16;5072331;28;20665;-54
2022/12/29 06:26:57;;;;;;;48.13;31.93;;;;;;;5.98;93.17;100626.50;5072018;28;20222;-53
2022/12/29 06:29:24;;;;;;;51.97;33.40;;;;;;;6.05;93.48;100653.19;5070615;28;20209;-54
2022/12/29 06:31:55;;;;;;;54.60;31.77;;;;;;;6.10;93.49;100651.78;5068100;28;20207;-55
2022/12/29 06:34:22;;;;;;;46.73;30.53;;;;;;;6.14;93.53;100652.00;5069450;28;20198;-54
2022/12/29 06:36:49;;;;;;;45.43;30.23;;;;;;;6.20;93.49;100661.66;5072148;28;20195;-54
2022/12/29 06:39:16;;;;;;;50.00;34.63;;;;;;;6.28;94.48;100663.81;5071060;28;20507;-54
2022/12/29 06:41:43;;;;;;;42.93;31.70;;;;;;;6.47;93.20;100663.94;5070433;28;20720;-55
2022/12/29 06:44:11;;;;;;;44.43;29.97;;;;;;;6.62;92.81;100666.38;5071750;28;20199;-54
2022/12/29 06:46:38;;;;;;;45.30;29.67;;;;;;;6.60;91.60;100674.75;5071562;28;20707;-53
2022/12/29 06:49:05;;;;;;;40.63;29.47;;;;;;;6.60;91.42;100673.09;5068429;28;20566;-54
2022/12/29 06:51:31;;;;;;;46.57;31.80;;;;;;;6.74;92.11;100681.44;5070554;28;20220;-54
2022/12/29 06:53:58;;;;;;;51.07;34.60;;;;;;;6.95;91.16;100683.38;5070537;28;20199;-55
2022/12/29 06:56:25;;;;;;;49.57;33.00;;;;;;;7.44;90.31;100680.66;5071731;28;20655;-54
2022/12/29 06:58:51;;;;;;;49.43;33.73;;;;;;;7.64;87.56;100680.78;5072250;28;20264;-54
2022/12/29 07:01:20;;;;;;;45.87;33.37;;;;;;;7.64;86.06;100687.56;5071500;28;20256;-54
2022/12/29 07:03:47;;;;;;;44.17;33.80;;;;;;;7.58;85.26;100700.94;5069927;28;20661;-55
2022/12/29 07:06:13;;;;;;;54.60;34.47;;;;;;;7.43;85.68;100678.91;5071827;28;20197;-55
2022/12/29 07:08:40;;;;;;;53.83;37.67;;;;;;;7.40;86.18;100696.66;5071718;28;20230;-54
2022/12/29 07:11:07;;;;;;;58.75;42.92;;;;;;;7.25;86.82;100694.22;5071376;28;20429;-55
2022/12/29 07:13:34;;;;;;;55.47;39.17;;;;;;;7.23;86.68;100695.84;5070278;28;20231;-54
2022/12/29 07:16:00;;;;;;;60.13;37.67;;;;;;;7.23;86.18;100702.63;5071928;28;20194;-54
2022/12/29 07:18:28;;;;;;;46.80;34.97;;;;;;;7.17;86.53;100700.63;5071177;28;20191;-55
2022/12/29 07:20:55;;;;;;;50.97;34.13;;;;;;;7.08;86.51;100697.66;5071252;28;20638;-54
2022/12/29 07:23:22;;;;;;;52.77;35.33;;;;;;;7.00;86.97;100701.53;5071608;28;20200;-54
2022/12/29 07:25:49;;;;;;;52.27;35.93;;;;;;;7.03;86.92;100696.56;5071286;28;20191;-55
2022/12/29 07:28:16;;;;;;;44.83;34.93;;;;;;;7.05;87.07;100697.50;5071483;28;20226;-55
2022/12/29 07:30:42;;;;;;;51.30;36.20;;;;;;;7.01;86.95;100691.34;5070542;28;20258;-55
2022/12/29 07:33:09;;;;;;;49.03;34.63;;;;;;;6.94;86.56;100696.97;5071383;28;20187;-55
2022/12/29 07:35:37;;;;;;;50.63;34.33;;;;;;;6.95;86.14;100687.66;5073823;28;20188;-56
2022/12/29 07:38:04;;;;;;;52.90;33.27;;;;;;;6.90;86.41;100689.06;5075521;28;20248;-55
2022/12/29 07:40:31;;;;;;;44.10;32.17;;;;;;;6.90;85.84;100692.50;5075830;28;20194;-55
2022/12/29 07:42:58;;;;;;;45.43;30.10;;;;;;;6.85;86.11;100693.97;5072075;28;20199;-55
2022/12/29 07:45:24;;;;;;;38.10;30.53;;;;;;;6.88;85.75;100681.34;5063991;28;20248;-55
2022/12/29 07:47:51;;;;;;;43.60;29.47;;;;;;;6.85;85.26;100691.41;5070406;28;20208;-55
2022/12/29 07:50:18;;;;;;;44.00;32.43;;;;;;;6.82;85.43;100687.81;5073822;28;20203;-55
2022/12/29 07:52:47;;;;;;;45.50;30.97;;;;;;;6.87;85.42;100694.91;5074885;28;20206;-56
2022/12/29 07:55:14;;;;;;;46.97;32.33;;;;;;;6.75;85.86;100688.31;5074064;28;20288;-55
2022/12/29 07:57:41;;;;;;;44.57;33.37;;;;;;;6.80;85.53;100690.31;5074757;28;20285;-55
2022/12/29 08:00:10;;;;;;;51.70;34.87;;;;;;;6.82;85.74;100692.91;5074884;28;20188;-56
2022/12/29 08:02:37;;;;;;;50.03;34.67;;;;;;;6.90;85.09;100689.06;5072748;28;20187;-55
2022/12/29 08:05:04;;;;;;;48.63;33.47;;;;;;;6.88;85.89;100675.34;5054871;28;20630;-55
2022/12/29 08:07:31;;;;;;;54.70;38.50;;;;;;;7.00;85.55;100696.41;5054038;28;20980;-55
2022/12/29 08:09:59;;;;;;;47.30;34.20;;;;;;;6.87;85.29;100664.25;5054350;28;20187;-55
2022/12/29 08:12:26;;;;;;;51.67;33.20;;;;;;;7.14;85.15;100690.31;5069034;28;20198;-55
2022/12/29 08:14:53;;;;;;;44.03;33.50;;;;;;;7.19;84.96;100698.19;5061039;28;20273;-55
2022/12/29 08:17:19;;;;;;;46.25;36.42;;;;;;;7.18;86.09;100691.31;5065246;28;20967;-55
2022/12/29 08:19:46;;;;;;;37.90;29.33;;;;;;;7.30;86.30;100704.69;5062034;28;20646;-55
2022/12/29 08:22:14;;;;;;;40.73;30.57;;;;;;;7.29;85.39;100685.91;5074601;28;20186;-55
2022/12/29 08:24:41;;;;;;;42.57;30.07;;;;;;;7.32;85.74;100700.53;5074183;28;20195;-56
2022/12/29 08:27:09;;;;;;;46.80;32.00;;;;;;;7.37;85.89;100694.81;5074092;28;20220;-55
2022/12/29 08:29:36;;;;;;;46.63;31.27;;;;;;;7.39;85.10;100689.81;5074201;28;20192;-55
2022/12/29 08:32:03;;;;;;;43.53;30.73;;;;;;;7.39;85.38;100697.47;5073871;28;20191;-56
2022/12/29 08:34:31;;;;;;;43.57;31.73;;;;;;;7.45;85.10;100697.75;5073759;28;20199;-55
2022/12/29 08:36:58;;;;;;;46.30;31.40;;;;;;;7.47;85.61;100688.50;5074242;28;20649;-56
2022/12/29 08:39:25;;;;;;;44.90;37.67;;;;;;;7.58;86.01;100690.72;5073282;28;20516;-56
2022/12/29 08:41:52;;;;;;;46.87;33.87;;;;;;;7.67;85.54;100686.03;5073885;28;20449;-55
2022/12/29 08:44:20;;;;;;;43.37;33.47;;;;;;;7.64;85.08;100685.91;5073748;28;20299;-54
2022/12/29 08:46:47;;;;;;;47.37;35.17;;;;;;;7.69;84.10;100679.31;5073810;28;20617;-55
2022/12/29 08:49:13;;;;;;;43.73;30.37;;;;;;;7.76;84.47;100680.47;5073754;28;20689;-55
2022/12/29 08:51:40;;;;;;;39.83;29.93;;;;;;;7.82;84.57;100672.22;5073892;28;20247;-55
2022/12/29 08:54:07;;;;;;;41.47;31.80;;;;;;;7.90;85.51;100676.00;5073509;28;20442;-55
2022/12/29 08:56:34;;;;;;;40.57;27.20;;;;;;;7.96;85.63;100669.50;5073797;28;20194;-55
2022/12/29 08:59:01;;;;;;;40.00;27.13;;;;;;;8.03;85.46;100668.06;5069952;28;20199;-56
2022/12/29 09:01:30;;;;;;;37.87;27.33;;;;;;;8.04;85.45;100668.16;5063549;28;20246;-56
2022/12/29 09:03:57;;;;;;;82.17;40.23;;;;;;;8.01;85.26;100638.97;5074085;28;20194;-56
2022/12/29 09:06:23;;;;;;;44.10;29.97;;;;;;;8.19;84.91;100655.13;5069393;28;20659;-57
2022/12/29 09:08:50;;;;;;;36.97;27.60;;;;;;;8.15;84.50;100654.16;5064356;28;20265;-56
2022/12/29 09:11:20;;;;;;;39.43;27.43;;;;;;;8.23;84.43;100651.91;5069732;28;20202;-56
2022/12/29 09:13:47;;;;;;;41.83;30.93;;;;;;;8.34;84.06;100648.16;5067189;28;20264;-54
2022/12/29 09:16:15;;;;;;;45.13;30.93;;;;;;;8.29;83.24;100647.09;5072447;28;20276;-56
2022/12/29 09:18:45;;;;;;;44.40;32.60;;;;;;;8.31;83.30;100635.22;5072720;28;20205;-56
2022/12/29 09:21:13;;;;;;;40.63;29.70;;;;;;;8.38;83.61;100633.81;5072363;28;20195;-56
2022/12/29 09:23:40;;;;;;;43.77;30.87;;;;;;;8.51;82.90;100631.84;5070442;28;20188;-56
2022/12/29 09:26:07;;;;;;;38.37;28.20;;;;;;;8.58;82.48;100628.72;5057382;28;20195;-57
2022/12/29 09:28:35;;;;;;;41.43;27.27;;;;;;;8.65;82.23;100628.16;5053066;28;20282;-54
2022/12/29 09:31:02;;;;;;;42.77;30.43;;;;;;;8.74;81.52;100619.97;5053476;28;20192;-55
2022/12/29 09:33:29;;;;;;;39.50;29.07;;;;;;;8.61;80.92;100604.91;5053161;28;20563;-55
2022/12/29 09:35:58;;;;;;;34.27;27.87;;;;;;;8.53;81.13;100575.56;5052845;28;20185;-54
2022/12/29 09:38:26;;;;;;;39.93;28.63;;;;;;;8.66;80.93;100617.09;5052777;28;20284;-54
2022/12/29 09:40:55;;;;;;;41.28;31.35;;;;;;;8.57;81.53;100608.19;5052706;28;20447;-54
2022/12/29 09:43:38;;;;;;;39.87;28.03;;;;;;;8.69;81.41;100608.66;5062590;28;20291;-54
2022/12/29 09:46:17;;;;;;;34.47;27.07;;;;;;;8.62;81.29;100594.75;5072663;28;20191;-55
2022/12/29 09:48:48;;;;;;;37.10;26.90;;;;;;;8.69;81.12;100591.63;5070389;28;20202;-56
2022/12/29 09:51:20;;;;;;;35.10;25.50;;;;;;;8.46;81.36;100568.44;5071330;28;20290;-57
2022/12/29 09:53:54;;;;;;;38.53;28.57;;;;;;;8.67;80.87;100585.56;5071682;28;20192;-57
2022/12/29 09:56:24;;;;;;;31.83;22.63;;;;;;;8.22;81.31;100501.66;5072555;28;20536;-56
2022/12/29 09:58:54;;;;;;;35.37;24.97;;;;;;;8.78;80.72;100578.31;5070986;28;20496;-56
2022/12/29 10:01:30;;;;;;;27.10;20.97;;;;;;;8.92;79.00;100569.50;5060850;28;20192;-56
2022/12/29 10:03:59;;;;;;;21.50;16.07;;;;;;;8.86;77.87;100565.00;5069293;28;20195;-57
2022/12/29 10:06:33;;;;;;;28.52;23.75;;;;;;;8.97;78.67;100557.72;5066239;28;20444;-56
2022/12/29 10:09:09;;;;;;;32.80;22.97;;;;;;;9.12;77.58;100560.03;5072145;28;20211;-57
2022/12/29 10:11:56;;;;;;;29.40;22.20;;;;;;;9.18;77.14;100548.28;5072196;28;20191;-56
2022/12/29 10:14:40;;;;;;;31.27;22.60;;;;;;;9.27;76.49;100552.91;5072324;28;20223;-59
2022/12/29 10:17:19;;;;;;;28.77;21.70;;;;;;;9.23;77.02;100551.91;5072644;28;20613;-56
2022/12/29 10:20:03;;;;;;;31.60;22.40;;;;;;;9.30;76.89;100547.91;5072290;28;20257;-57
2022/12/29 10:22:46;;;;;;;31.93;22.80;;;;;;;9.40;76.03;100540.59;5065493;28;20252;-57
2022/12/29 10:25:17;;;;;;;31.50;24.27;;;;;;;9.27;76.33;100546.09;5067304;28;20187;-58
2022/12/29 10:27:48;;;;;;;31.93;22.67;;;;;;;9.27;75.98;100529.81;5070693;28;20246;-57
2022/12/29 10:30:15;;;;;;;32.43;23.97;;;;;;;9.46;75.94;100543.41;5071079;28;20654;-57
2022/12/29 10:32:48;;;;;;;31.27;23.57;;;;;;;9.54;75.57;100535.97;5071366;28;20206;-57
2022/12/29 10:35:18;;;;;;;37.53;25.93;;;;;;;9.47;75.57;100500.69;5071844;28;20230;-57
2022/12/29 10:37:54;;;;;;;38.53;28.75;;;;;;;9.66;74.95;100528.75;5065036;28;20454;-57
2022/12/29 10:40:27;;;;;;;32.93;25.30;;;;;;;9.41;75.21;100520.97;5052603;28;20191;-59
2022/12/29 10:42:55;;;;;;;34.27;25.43;;;;;;;9.53;76.16;100529.13;5052198;28;20188;-58
2022/12/29 10:45:26;;;;;;;31.27;24.07;;;;;;;9.66;75.60;100512.47;5053668;28;20218;-58
2022/12/29 10:47:58;;;;;;;33.43;24.30;;;;;;;9.75;74.88;100517.94;5066499;28;20212;-56
2022/12/29 10:50:27;;;;;;;35.53;24.17;;;;;;;9.36;74.75;100436.16;5069325;28;20662;-57
2022/12/29 10:52:57;;;;;;;37.38;28.63;;;;;;;9.78;74.60;100506.06;5069271;28;20436;-58
2022/12/29 10:55:28;;;;;;;35.00;25.43;;;;;;;9.92;74.17;100509.13;5068592;28;20658;-57
2022/12/29 10:57:59;;;;;;;41.13;27.30;;;;;;;10.03;73.77;100521.50;5070979;28;20654;-57
2022/12/29 11:00:26;;;;;;;38.60;27.13;;;;;;;10.11;73.03;100515.78;5070800;28;20491;-57
2022/12/29 11:03:09;;;;;;;35.03;26.50;;;;;;;10.05;73.12;100506.19;5070631;28;20778;-57
2022/12/29 11:05:42;;;;;;;35.07;25.03;;;;;;;10.09;73.11;100501.19;5067398;28;20199;-58
2022/12/29 11:08:17;;;;;;;33.70;26.10;;;;;;;10.08;72.75;100506.25;5071095;28;20272;-57
2022/12/29 11:10:46;;;;;;;38.47;25.27;;;;;;;10.13;72.82;100476.53;5070380;28;20191;-57
2022/12/29 11:13:16;;;;;;;37.77;26.20;;;;;;;10.29;71.89;100496.78;5073031;28;20188;-57
2022/12/29 11:15:45;;;;;;;36.77;26.67;;;;;;;10.19;72.55;100488.72;5070840;28;20191;-57
2022/12/29 11:18:23;;;;;;;36.13;26.53;;;;;;;10.35;71.81;100488.38;5072389;28;20191;-57
2022/12/29 11:20:52;;;;;;;39.27;27.47;;;;;;;10.43;71.55;100485.25;5074803;28;20180;-57
2022/12/29 11:23:31;;;;;;;37.37;25.73;;;;;;;10.31;70.92;100456.59;5072676;28;20278;-57
2022/12/29 11:26:20;;;;;;;35.90;29.13;;;;;;;10.55;70.49;100477.03;5071763;28;20443;-57
2022/12/29 11:29:04;;;;;;;36.73;26.80;;;;;;;10.68;69.88;100476.63;5073521;28;20212;-57
2022/12/29 11:31:31;;;;;;;37.10;27.27;;;;;;;10.64;70.13;100461.91;5074004;28;20274;-57
2022/12/29 11:33:57;;;;;;;39.63;27.53;;;;;;;10.80;69.25;100478.69;5072158;28;20196;-57
2022/12/29 11:36:25;;;;;;;38.70;26.43;;;;;;;10.88;68.65;100478.09;5075235;28;20195;-57
2022/12/29 11:38:56;;;;;;;34.90;25.73;;;;;;;10.82;68.09;100447.09;5075202;28;20191;-57
2022/12/29 11:41:26;;;;;;;36.83;28.92;;;;;;;10.81;67.90;100468.47;5075215;28;20437;-58
2022/12/29 11:43:54;;;;;;;38.27;27.37;;;;;;;10.73;68.24;100457.06;5075377;28;20188;-57
2022/12/29 11:46:25;;;;;;;37.70;27.03;;;;;;;10.79;68.11;100459.84;5075058;28;20278;-57
2022/12/29 11:48:52;;;;;;;35.93;26.63;;;;;;;10.75;67.91;100459.69;5074918;28;20306;-58
2022/12/29 11:51:26;;;;;;;37.60;27.27;;;;;;;10.83;68.25;100459.09;5074664;28;20196;-57
2022/12/29 11:53:59;;;;;;;34.73;26.40;;;;;;;10.87;67.72;100450.66;5075177;28;20526;-57
2022/12/29 11:56:35;;;;;;;39.10;26.70;;;;;;;10.90;67.88;100455.03;5073615;28;20570;-57
2022/12/29 11:59:36;;;;;;;38.90;28.77;;;;;;;10.95;67.65;100454.34;5074503;28;20207;-57
2022/12/29 12:02:21;;;;;;;38.80;26.63;;;;;;;11.05;67.09;100445.19;5074984;28;20191;-57